Time;durP1;ratioP1;P1;durP2;ratioP2;P2;SDS_P1;SDS_P2;PMS_P1;PMS_P2;Temp;Humidity;BMP_temperature;BMP_pressure;BME280_temperature;BME280_humidity;BME280_pressure;Samples;Min_cycle;Max_cycle;Signal;HPM_P1;HPM_P2
2022/04/24 00:00:29;;;;;;;19.37;13.10;;;;;;;8.76;66.44;99332.86;1694021;84;25616;-72
2022/04/24 00:02:57;;;;;;;18.87;12.75;;;;;;;8.72;66.63;99334.62;1694237;84;25566;-72
2022/04/24 00:05:23;;;;;;;16.62;12.65;;;;;;;8.67;66.84;99333.45;1694082;84;25651;-72
2022/04/24 00:07:49;;;;;;;17.02;12.40;;;;;;;8.64;66.93;99336.77;1694177;84;25417;-71
2022/04/24 00:10:15;;;;;;;17.85;12.47;;;;;;;8.60;66.86;99338.75;1694118;84;27310;-71
2022/04/24 00:12:42;;;;;;;16.62;12.37;;;;;;;8.57;66.93;99335.91;1694040;84;25616;-71
2022/04/24 00:15:09;;;;;;;16.52;12.90;;;;;;;8.50;67.06;99337.73;1694156;84;25603;-71
2022/04/24 00:17:35;;;;;;;17.87;12.50;;;;;;;8.45;67.16;99335.77;1694090;84;26133;-71
2022/04/24 00:20:01;;;;;;;16.42;12.55;;;;;;;8.39;67.30;99337.77;1670064;84;25639;-71
2022/04/24 00:22:27;;;;;;;20.25;12.85;;;;;;;8.35;67.20;99332.23;1694128;84;28054;-71
2022/04/24 00:24:53;;;;;;;18.92;12.10;;;;;;;8.31;67.29;99333.17;1694076;84;32770;-72
2022/04/24 00:27:19;;;;;;;18.35;13.05;;;;;;;8.27;67.56;99333.58;1694155;84;25581;-72
2022/04/24 00:29:45;;;;;;;16.25;12.05;;;;;;;8.21;67.75;99332.95;1694081;84;34811;-72
2022/04/24 00:32:11;;;;;;;17.25;12.60;;;;;;;8.14;67.87;99324.53;1694158;84;32392;-71
2022/04/24 00:34:38;;;;;;;17.05;13.13;;;;;;;8.10;68.04;99320.89;1694439;84;27373;-72
2022/04/24 00:37:05;;;;;;;21.02;13.22;;;;;;;8.01;68.07;99309.55;1682632;85;25423;-72
2022/04/24 00:39:31;;;;;;;18.92;13.62;;;;;;;7.95;68.29;99316.22;1682716;85;25596;-72
2022/04/24 00:41:57;;;;;;;19.98;12.85;;;;;;;7.92;68.25;99311.45;1694850;84;34841;-72
2022/04/24 00:44:23;;;;;;;18.92;12.68;;;;;;;7.86;68.26;99310.80;1694925;84;25609;-71
2022/04/24 00:47:03;;;;;;;18.73;13.30;;;;;;;7.82;68.47;99315.23;1694867;84;27408;-71
2022/04/24 00:49:30;;;;;;;15.53;12.00;;;;;;;7.75;68.45;99317.60;1694783;84;25546;-72
2022/04/24 00:51:57;;;;;;;19.57;12.40;;;;;;;7.69;68.56;99318.84;1694871;84;25569;-72
2022/04/24 00:54:24;;;;;;;17.70;13.08;;;;;;;7.63;68.27;99324.94;1694808;84;25685;-72
2022/04/24 00:56:50;;;;;;;19.95;12.37;;;;;;;7.58;68.16;99326.98;1694877;84;25566;-71
2022/04/24 00:59:16;;;;;;;18.57;13.15;;;;;;;7.52;68.42;99327.66;1694867;84;27333;-71
2022/04/24 01:01:43;;;;;;;18.27;11.97;;;;;;;7.47;68.56;99335.34;1694754;84;32694;-72
2022/04/24 01:04:12;;;;;;;16.25;11.83;;;;;;;7.41;68.46;99333.09;1694848;84;25670;-72
2022/04/24 01:06:41;;;;;;;15.67;11.27;;;;;;;7.35;68.77;99337.02;1695059;84;26007;-72
2022/04/24 01:09:19;;;;;;;16.25;12.98;;;;;;;7.29;68.79;99336.38;1695031;84;25639;-72
2022/04/24 01:11:48;;;;;;;20.30;13.50;;;;;;;7.23;68.85;99337.60;1694889;84;27338;-72
2022/04/24 01:14:16;;;;;;;18.37;12.93;;;;;;;7.19;69.41;99333.95;1694896;84;25441;-72
2022/04/24 01:16:44;;;;;;;18.25;12.55;;;;;;;7.15;69.57;99334.31;1694892;84;25607;-72
2022/04/24 01:19:12;;;;;;;19.62;12.28;;;;;;;7.13;69.70;99335.97;1694857;84;25593;-72
2022/04/24 01:21:43;;;;;;;17.85;12.05;;;;;;;7.11;69.96;99330.89;1694889;84;25490;-72
2022/04/24 01:24:12;;;;;;;17.73;11.73;;;;;;;7.09;70.25;99325.59;1694905;84;28080;-72
2022/04/24 01:26:39;;;;;;;19.35;13.30;;;;;;;7.06;70.32;99324.30;1695084;84;25745;-72
2022/04/24 01:29:06;;;;;;;16.05;12.35;;;;;;;7.06;70.35;99330.23;1672671;84;25686;-72
2022/04/24 01:31:33;;;;;;;20.08;13.05;;;;;;;7.06;70.39;99329.68;1694800;84;25496;-71
2022/04/24 01:33:59;;;;;;;19.02;13.22;;;;;;;7.06;70.61;99322.95;1693416;84;25516;-72
2022/04/24 01:36:27;;;;;;;18.50;13.15;;;;;;;7.09;70.77;99325.03;1644397;87;27329;-72
2022/04/24 01:38:53;;;;;;;21.05;13.60;;;;;;;7.10;71.07;99321.26;1684816;85;25651;-73
2022/04/24 01:41:19;;;;;;;22.35;13.22;;;;;;;7.11;71.22;99318.01;1684949;84;25550;-72
2022/04/24 01:43:47;;;;;;;15.13;11.83;;;;;;;7.13;71.30;99314.45;1684896;85;25534;-73
2022/04/24 01:46:14;;;;;;;18.07;12.70;;;;;;;7.15;71.33;99309.58;1684940;84;25464;-72
2022/04/24 01:48:40;;;;;;;18.10;13.03;;;;;;;7.17;71.23;99308.71;1684919;84;28047;-71
2022/04/24 01:51:08;;;;;;;21.40;13.80;;;;;;;7.19;71.27;99315.91;1684766;85;25575;-71
2022/04/24 01:53:36;;;;;;;18.90;13.62;;;;;;;7.21;71.56;99312.36;1684894;85;25667;-71
2022/04/24 01:56:05;;;;;;;16.82;13.53;;;;;;;7.24;71.69;99313.64;1684891;85;25584;-71
2022/04/24 01:58:32;;;;;;;;;;;;;;;7.26;71.59;99311.44;1687425;84;25690;-71
2022/04/24 02:00:59;;;;;;;20.27;13.88;;;;;;;7.31;71.87;99318.58;1684908;84;27384;-70
2022/04/24 02:03:27;;;;;;;20.88;14.63;;;;;;;7.29;71.65;99314.30;1684807;85;25727;-71
2022/04/24 02:05:54;;;;;;;20.30;15.45;;;;;;;7.32;71.94;99319.62;1684882;85;25586;-71
2022/04/24 02:08:20;;;;;;;22.17;15.23;;;;;;;7.34;71.90;99317.94;1684833;85;25413;-71
2022/04/24 02:10:50;;;;;;;21.75;15.48;;;;;;;7.36;72.04;99317.09;1684802;84;25450;-70
2022/04/24 02:13:17;;;;;;;22.90;15.00;;;;;;;7.37;72.28;99319.48;1685008;85;27391;-74
2022/04/24 02:15:45;;;;;;;22.65;16.73;;;;;;;7.40;72.32;99309.98;1684784;85;25740;-73
2022/04/24 02:18:11;;;;;;;24.23;15.53;;;;;;;7.43;72.29;99313.39;1684865;85;25631;-71
2022/04/24 02:20:38;;;;;;;19.27;14.85;;;;;;;7.43;72.40;99312.05;1684841;84;25965;-71
2022/04/24 02:23:04;;;;;;;19.98;15.32;;;;;;;7.45;72.22;99316.00;1684936;85;25568;-72
2022/04/24 02:25:30;;;;;;;19.92;14.93;;;;;;;7.47;72.20;99314.34;1684869;85;28117;-72
2022/04/24 02:27:57;;;;;;;20.48;15.65;;;;;;;7.48;72.34;99318.08;1684784;85;32809;-72
2022/04/24 02:30:28;;;;;;;21.33;15.28;;;;;;;7.49;72.40;99324.24;1684977;84;25569;-72
2022/04/24 02:32:59;;;;;;;20.77;14.63;;;;;;;7.48;72.43;99333.44;1685202;85;25615;-72
2022/04/24 02:35:28;;;;;;;19.37;14.58;;;;;;;7.50;72.50;99333.13;1690471;84;25460;-72
2022/04/24 02:37:54;;;;;;;23.10;14.83;;;;;;;7.51;72.42;99334.70;1694611;84;27558;-72
2022/04/24 02:40:27;;;;;;;19.87;14.50;;;;;;;7.53;72.61;99333.30;1694334;84;25683;-72
2022/04/24 02:42:50;;;;;;;20.70;14.30;;;;;;;7.54;72.65;99332.73;1669831;84;25549;-72
2022/04/24 02:45:17;;;;;;;18.48;14.30;;;;;;;7.55;72.73;99331.08;1694145;84;26026;-72
2022/04/24 02:47:43;;;;;;;17.65;14.45;;;;;;;7.58;72.73;99333.71;1694113;84;25587;-72
2022/04/24 02:50:10;;;;;;;20.88;14.87;;;;;;;7.59;72.71;99329.90;1694003;84;28028;-72
2022/04/24 02:52:48;;;;;;;21.23;14.33;;;;;;;7.59;72.76;99329.90;1693969;84;25853;-72
2022/04/24 02:55:15;;;;;;;20.97;14.35;;;;;;;7.62;72.91;99327.94;1694133;84;25583;-72
2022/04/24 02:57:43;;;;;;;20.37;14.05;;;;;;;7.63;72.81;99326.84;1693998;84;25666;-72
2022/04/24 03:00:12;;;;;;;18.67;14.03;;;;;;;7.65;72.87;99325.41;1694062;84;25587;-72
2022/04/24 03:02:42;;;;;;;22.17;14.70;;;;;;;7.65;72.86;99324.06;1694338;84;27314;-72
2022/04/24 03:05:15;;;;;;;18.85;13.43;;;;;;;7.69;72.88;99320.75;1693500;84;25611;-72
2022/04/24 03:07:42;;;;;;;20.70;13.58;;;;;;;7.71;72.77;99323.91;1694226;84;25585;-72
2022/04/24 03:10:09;;;;;;;20.50;14.87;;;;;;;7.73;72.87;99323.86;1694123;84;25658;-72
2022/04/24 03:12:41;;;;;;;20.75;14.30;;;;;;;7.73;72.81;99322.52;1694217;84;25633;-73
2022/04/24 03:15:10;;;;;;;18.00;13.62;;;;;;;7.76;72.82;99330.50;1694191;84;27897;-73
2022/04/24 03:17:37;;;;;;;20.10;14.07;;;;;;;7.76;72.72;99325.12;1694108;84;25645;-72
2022/04/24 03:20:07;;;;;;;21.95;13.70;;;;;;;7.77;72.71;99327.50;1694196;84;25443;-72
2022/04/24 03:22:33;;;;;;;26.35;17.92;;;;;;;7.79;72.79;99322.58;1694143;84;25526;-72
2022/04/24 03:25:04;;;;;;;23.35;14.90;;;;;;;7.80;72.71;99326.88;1694175;84;25578;-72
2022/04/24 03:27:30;;;;;;;28.50;19.05;;;;;;;7.82;72.74;99319.83;1692760;84;27400;-72
2022/04/24 03:29:57;;;;;;;21.80;14.00;;;;;;;7.82;72.69;99321.96;1694077;84;25719;-72
2022/04/24 03:32:24;;;;;;;18.92;13.22;;;;;;;7.81;72.66;99314.98;1694158;84;25419;-73
2022/04/24 03:34:50;;;;;;;20.65;13.98;;;;;;;7.83;72.58;99314.67;1693514;84;25494;-73
2022/04/24 03:37:18;;;;;;;20.70;14.38;;;;;;;7.85;72.72;99323.25;1691253;84;25437;-72
2022/04/24 03:39:45;;;;;;;23.90;14.90;;;;;;;7.85;72.69;99324.59;1691184;84;28028;-72
2022/04/24 03:42:11;;;;;;;23.73;14.33;;;;;;;7.85;72.68;99322.69;1691059;84;25561;-72
2022/04/24 03:44:37;;;;;;;22.30;14.98;;;;;;;7.88;72.73;99336.06;1691190;84;25612;-72
2022/04/24 03:47:03;;;;;;;22.65;14.78;;;;;;;7.89;72.63;99332.84;1691143;84;34763;-72
2022/04/24 03:49:30;;;;;;;21.35;14.70;;;;;;;7.91;72.74;99325.23;1691232;84;25630;-72
2022/04/24 03:51:56;;;;;;;23.98;15.53;;;;;;;7.93;72.64;99327.05;1691113;84;28075;-72
2022/04/24 03:54:22;;;;;;;24.02;14.68;;;;;;;7.94;72.57;99331.34;1691066;84;25647;-72
2022/04/24 03:56:48;;;;;;;23.98;15.00;;;;;;;7.92;72.56;99327.61;1691198;84;25480;-72
2022/04/24 03:59:14;;;;;;;20.95;14.35;;;;;;;7.92;72.48;99328.17;1691148;84;26244;-72
2022/04/24 04:01:40;;;;;;;22.07;15.05;;;;;;;7.92;72.51;99329.52;1691212;84;25473;-72
2022/04/24 04:04:06;;;;;;;23.83;15.40;;;;;;;7.91;72.46;99324.67;1691147;84;27411;-71
2022/04/24 04:06:33;;;;;;;21.25;14.87;;;;;;;7.92;72.38;99329.52;1691082;84;25709;-72
2022/04/24 04:08:59;;;;;;;23.85;15.68;;;;;;;7.91;72.44;99320.63;1691160;84;29663;-72
2022/04/24 04:11:26;;;;;;;24.55;15.35;;;;;;;7.93;72.49;99319.75;1691081;84;35259;-72
2022/04/24 04:13:53;;;;;;;22.07;15.05;;;;;;;7.95;72.54;99328.33;1691195;84;25636;-72
2022/04/24 04:16:19;;;;;;;24.00;16.45;;;;;;;7.95;72.43;99328.33;1691134;84;27408;-72
2022/04/24 04:18:45;;;;;;;21.68;15.08;;;;;;;7.92;72.41;99323.57;1691046;84;33190;-71
2022/04/24 04:21:12;;;;;;;22.52;15.25;;;;;;;7.96;72.59;99327.77;1691149;84;25558;-72
2022/04/24 04:23:38;;;;;;;22.13;15.32;;;;;;;8.01;72.58;99324.36;1691106;84;25428;-72
2022/04/24 04:26:04;;;;;;;21.60;14.47;;;;;;;8.05;72.68;99328.56;1691174;84;25631;-73
2022/04/24 04:28:30;;;;;;;22.42;14.75;;;;;;;8.07;72.51;99326.91;1691138;84;27406;-73
2022/04/24 04:30:57;;;;;;;22.75;14.80;;;;;;;8.09;72.61;99337.61;1691032;84;25802;-73
2022/04/24 04:33:23;;;;;;;26.15;14.60;;;;;;;8.12;72.72;99341.03;1691164;84;25641;-73
2022/04/24 04:35:52;;;;;;;27.50;15.58;;;;;;;8.14;72.56;99346.89;1691028;84;34788;-74
2022/04/24 04:38:18;;;;;;;;;;;;;;;8.16;72.55;99341.97;1693697;84;25630;-74
2022/04/24 04:40:44;;;;;;;22.55;14.63;;;;;;;8.20;72.69;99340.22;1691125;84;27320;-73
2022/04/24 04:43:11;;;;;;;24.27;14.78;;;;;;;8.20;72.61;99341.56;1691021;84;25805;-74
2022/04/24 04:45:38;;;;;;;22.17;14.68;;;;;;;8.22;72.80;99336.68;1691122;84;25408;-73
2022/04/24 04:48:06;;;;;;;21.15;15.32;;;;;;;8.28;73.02;99340.56;1691092;84;25587;-72
2022/04/24 04:50:32;;;;;;;22.37;15.03;;;;;;;8.33;73.01;99339.84;1691126;84;25574;-73
2022/04/24 04:52:59;;;;;;;22.85;14.87;;;;;;;8.37;72.71;99339.44;1691124;84;27340;-72
2022/04/24 04:55:25;;;;;;;22.37;14.75;;;;;;;8.37;72.36;99340.00;1691054;84;25658;-73
2022/04/24 04:57:51;;;;;;;21.07;14.68;;;;;;;8.37;72.35;99340.00;1691143;84;25636;-73
2022/04/24 05:00:19;;;;;;;20.57;13.95;;;;;;;8.40;72.47;99333.42;1691065;84;25942;-73
2022/04/24 05:02:45;;;;;;;21.20;14.65;;;;;;;8.42;72.32;99333.10;1690893;84;25497;-73
2022/04/24 05:05:11;;;;;;;23.47;14.70;;;;;;;8.45;72.32;99328.46;1691113;84;27417;-73
2022/04/24 05:07:38;;;;;;;20.48;13.78;;;;;;;8.50;72.36;99335.60;1691021;84;25489;-74
2022/04/24 05:10:08;;;;;;;19.10;13.58;;;;;;;8.55;72.50;99339.48;1691127;84;25630;-72
2022/04/24 05:12:34;;;;;;;20.37;14.15;;;;;;;8.60;72.33;99341.45;1691107;84;26057;-72
2022/04/24 05:15:06;;;;;;;19.92;14.05;;;;;;;8.65;72.09;99339.69;1691141;84;25428;-73
2022/04/24 05:17:37;;;;;;;19.98;14.03;;;;;;;8.66;71.84;99339.38;1691102;84;27514;-73
2022/04/24 05:20:05;;;;;;;22.42;14.20;;;;;;;8.62;71.61;99341.13;1691015;84;25480;-73
2022/04/24 05:22:32;;;;;;;16.57;13.03;;;;;;;8.63;71.75;99345.96;1691348;84;25552;-72
2022/04/24 05:24:58;;;;;;;19.80;13.72;;;;;;;8.62;71.70;99343.05;1691029;84;25545;-73
2022/04/24 05:27:24;;;;;;;23.22;14.03;;;;;;;8.63;71.82;99345.96;1691149;84;25639;-73
2022/04/24 05:29:51;;;;;;;20.60;14.28;;;;;;;8.65;71.98;99346.42;1691108;84;27342;-72
2022/04/24 05:32:17;;;;;;;21.17;12.80;;;;;;;8.70;71.98;99340.88;1690975;84;25732;-72
2022/04/24 05:34:43;;;;;;;19.52;13.15;;;;;;;8.69;71.83;99349.52;1691108;84;25488;-73
2022/04/24 05:37:09;;;;;;;18.75;12.98;;;;;;;8.72;71.70;99343.50;1691066;84;25984;-72
2022/04/24 05:39:36;;;;;;;19.10;13.03;;;;;;;8.78;71.67;99340.08;1691148;84;25407;-73
2022/04/24 05:42:02;;;;;;;17.60;13.10;;;;;;;8.84;71.80;99340.16;1691060;84;27424;-73
2022/04/24 05:44:29;;;;;;;19.45;13.50;;;;;;;8.94;71.87;99339.03;1691034;84;25610;-72
2022/04/24 05:46:55;;;;;;;20.40;12.45;;;;;;;9.08;72.02;99340.18;1691106;84;25603;-72
2022/04/24 05:49:21;;;;;;;14.70;11.08;;;;;;;9.22;71.98;99346.72;1691039;84;34751;-73
2022/04/24 05:51:47;;;;;;;19.15;12.43;;;;;;;9.34;71.77;99346.83;1691102;84;32467;-73
2022/04/24 05:54:15;;;;;;;16.48;11.85;;;;;;;9.48;71.86;99351.47;1691102;84;27383;-74
2022/04/24 05:56:42;;;;;;;17.80;11.65;;;;;;;9.72;71.80;99351.41;1690999;84;25582;-73
2022/04/24 05:59:09;;;;;;;14.43;9.88;;;;;;;9.97;71.81;99356.44;1691074;84;25464;-74
2022/04/24 06:01:35;;;;;;;14.83;10.55;;;;;;;10.16;71.15;99369.50;1691055;84;25601;-74
2022/04/24 06:04:01;;;;;;;13.38;9.65;;;;;;;10.31;70.89;99366.00;1691109;84;25577;-73
2022/04/24 06:06:30;;;;;;;13.20;10.50;;;;;;;10.38;70.23;99369.77;1691094;84;27333;-73
2022/04/24 06:08:55;;;;;;;14.75;10.53;;;;;;;10.52;69.94;99376.30;1690849;84;25662;-74
2022/04/24 06:11:21;;;;;;;16.60;10.40;;;;;;;10.73;69.39;99366.80;1691140;84;29629;-73
2022/04/24 06:13:47;;;;;;;16.70;11.25;;;;;;;10.94;69.14;99370.80;1691038;84;25575;-74
2022/04/24 06:16:14;;;;;;;15.78;10.70;;;;;;;11.24;69.35;99365.25;1691105;84;25413;-73
2022/04/24 06:18:40;;;;;;;14.63;10.23;;;;;;;11.57;69.17;99369.22;1691057;84;28020;-74
2022/04/24 06:21:08;;;;;;;17.15;10.58;;;;;;;11.89;68.30;99376.23;1691030;84;25401;-73
2022/04/24 06:23:34;;;;;;;13.18;10.75;;;;;;;12.19;67.50;99372.48;1691058;84;25587;-73
2022/04/24 06:26:00;;;;;;;13.68;10.63;;;;;;;12.46;66.80;99375.02;1691007;84;25607;-74
2022/04/24 06:28:26;;;;;;;15.98;10.90;;;;;;;12.76;66.57;99373.34;1691055;84;25410;-73
2022/04/24 06:30:52;;;;;;;14.03;9.43;;;;;;;13.01;66.19;99365.30;1691037;84;27340;-73
2022/04/24 06:33:19;;;;;;;14.03;9.83;;;;;;;13.38;65.38;99367.84;1690957;84;33198;-73
2022/04/24 06:35:48;;;;;;;12.15;8.18;;;;;;;13.74;64.83;99374.13;1691269;84;25624;-73
2022/04/24 06:38:14;;;;;;;11.18;8.13;;;;;;;14.14;64.58;99372.30;1694161;84;25615;-73
2022/04/24 06:40:40;;;;;;;13.00;7.60;;;;;;;14.56;63.47;99369.69;1694082;84;25436;-72
2022/04/24 06:43:07;;;;;;;14.07;8.48;;;;;;;14.79;62.76;99366.84;1694040;84;27463;-72
2022/04/24 06:45:40;;;;;;;10.75;8.45;;;;;;;14.93;62.16;99370.63;1693947;84;25583;-72
2022/04/24 06:48:13;;;;;;;11.57;8.85;;;;;;;14.92;60.90;99374.48;1694070;84;25666;-73
2022/04/24 06:50:46;;;;;;;8.93;7.60;;;;;;;14.81;59.87;99383.60;1693985;84;25554;-72
2022/04/24 06:53:20;;;;;;;14.30;8.25;;;;;;;14.60;59.53;99382.03;1694084;84;25637;-72
2022/04/24 06:55:49;;;;;;;10.05;8.33;;;;;;;14.46;59.51;99386.58;1694099;84;27525;-72
2022/04/24 06:58:18;;;;;;;9.65;7.60;;;;;;;14.35;59.26;99374.68;1694066;84;25685;-73
2022/04/24 07:00:46;;;;;;;11.03;7.60;;;;;;;14.37;59.38;99381.35;1694304;84;25638;-72
2022/04/24 07:03:24;;;;;;;12.75;9.08;;;;;;;14.49;59.54;99382.34;1694008;84;25538;-72
2022/04/24 07:05:56;;;;;;;9.58;7.45;;;;;;;14.60;59.47;99386.70;1694110;84;25811;-72
2022/04/24 07:08:26;;;;;;;9.78;7.50;;;;;;;14.73;59.39;99393.00;1694068;84;27951;-72
2022/04/24 07:10:53;;;;;;;8.38;7.30;;;;;;;14.94;59.48;99387.16;1693926;84;25539;-73
2022/04/24 07:13:21;;;;;;;10.25;7.22;;;;;;;15.11;58.72;99376.97;1694034;84;25583;-73
2022/04/24 07:15:47;;;;;;;8.70;7.00;;;;;;;15.12;57.92;99385.37;1693982;84;25669;-73
2022/04/24 07:18:13;;;;;;;8.83;7.65;;;;;;;15.11;57.80;99389.23;1694019;84;25588;-74
2022/04/24 07:20:41;;;;;;;9.10;6.47;;;;;;;15.15;57.67;99387.92;1693934;84;27922;-73
2022/04/24 07:23:11;;;;;;;8.60;6.80;;;;;;;15.18;57.47;99379.05;1693736;84;25645;-74
2022/04/24 07:25:43;;;;;;;9.23;7.22;;;;;;;15.24;56.93;99389.86;1690539;84;25590;-73
2022/04/24 07:28:18;;;;;;;10.25;8.15;;;;;;;15.27;57.02;99387.20;1693115;84;25649;-73
2022/04/24 07:30:45;;;;;;;10.55;8.40;;;;;;;15.23;56.63;99383.61;1693308;84;25629;-72
2022/04/24 07:33:12;;;;;;;11.33;7.87;;;;;;;15.17;56.28;99391.07;1694048;84;27448;-71
2022/04/24 07:35:40;;;;;;;11.63;8.50;;;;;;;15.06;55.76;99394.97;1693972;84;25618;-72
2022/04/24 07:38:07;;;;;;;10.95;7.35;;;;;;;14.87;55.86;99396.56;1691219;84;25618;-70
2022/04/24 07:40:36;;;;;;;7.15;6.45;;;;;;;14.83;56.35;99398.44;1691050;84;25520;-71
2022/04/24 07:43:10;;;;;;;7.35;6.60;;;;;;;15.27;57.21;99389.92;1691191;84;25468;-71
2022/04/24 07:45:43;;;;;;;7.65;6.40;;;;;;;16.01;57.17;99388.78;1690409;84;27344;-71
2022/04/24 07:48:12;;;;;;;8.93;6.12;;;;;;;16.79;56.56;99388.83;1665127;84;25574;-71
2022/04/24 07:50:50;;;;;;;20.57;14.87;;;;;;;17.38;55.53;99380.84;1691249;84;25488;-73
2022/04/24 07:53:21;;;;;;;8.75;7.65;;;;;;;17.69;54.38;99377.38;1691218;84;25643;-73
2022/04/24 07:55:50;;;;;;;8.33;6.58;;;;;;;17.83;53.81;99385.71;1691350;84;25570;-73
2022/04/24 07:58:17;;;;;;;7.40;5.37;;;;;;;17.85;52.91;99380.64;1691166;84;27891;-75
2022/04/24 08:00:45;;;;;;;6.30;5.65;;;;;;;17.96;52.54;99381.32;1691053;84;25731;-72
2022/04/24 08:03:14;;;;;;;6.40;5.78;;;;;;;17.92;51.36;99384.81;1691154;84;25403;-73
2022/04/24 08:05:51;;;;;;;5.67;5.08;;;;;;;17.70;50.59;99386.58;1691263;84;25603;-74
2022/04/24 08:08:21;;;;;;;19.32;13.55;;;;;;;17.46;50.42;99381.70;1691178;84;25649;-73
2022/04/24 08:10:50;;;;;;;14.13;9.18;;;;;;;17.12;49.95;99385.88;1690942;84;27344;-73
2022/04/24 08:13:19;;;;;;;8.15;6.67;;;;;;;16.87;50.32;99393.80;1691081;84;25639;-72
2022/04/24 08:15:47;;;;;;;9.50;6.87;;;;;;;16.75;50.83;99394.25;1691300;84;25498;-73
2022/04/24 08:18:14;;;;;;;8.00;6.47;;;;;;;16.87;52.05;99389.12;1665320;84;25651;-72
2022/04/24 08:20:42;;;;;;;6.17;5.58;;;;;;;17.05;51.01;99397.52;1691154;84;25202;-74
2022/04/24 08:23:11;;;;;;;7.05;5.00;;;;;;;16.79;49.96;99391.55;1691226;84;27876;-71
2022/04/24 08:25:38;;;;;;;7.72;5.60;;;;;;;16.43;49.91;99390.53;1680920;84;25673;-71
2022/04/24 08:28:08;;;;;;;6.25;4.50;;;;;;;16.25;50.53;99382.69;1695875;83;25643;-73
2022/04/24 08:30:39;;;;;;;5.15;4.67;;;;;;;16.29;51.06;99386.83;1700215;84;25571;-73
2022/04/24 08:33:06;;;;;;;5.50;5.00;;;;;;;16.38;51.24;99384.03;1664820;85;26009;-71
2022/04/24 08:35:34;;;;;;;6.05;5.45;;;;;;;16.38;51.15;99386.77;1691095;83;27311;-74
2022/04/24 08:38:01;;;;;;;7.72;5.65;;;;;;;16.36;50.84;99391.01;1692803;84;25675;-74
2022/04/24 08:40:27;;;;;;;6.25;5.62;;;;;;;16.23;50.38;99380.33;1678069;84;25420;-73
2022/04/24 08:42:55;;;;;;;6.47;5.72;;;;;;;16.10;50.41;99380.33;1678059;85;25440;-71
2022/04/24 08:45:29;;;;;;;8.90;5.35;;;;;;;16.06;50.78;99377.56;1669593;85;25606;-73
2022/04/24 08:47:58;;;;;;;6.12;5.60;;;;;;;16.05;50.91;99377.34;1623137;87;28051;-73
2022/04/24 08:50:29;;;;;;;7.10;6.17;;;;;;;16.11;51.30;99377.83;1660344;86;25766;-74
2022/04/24 08:53:00;;;;;;;9.15;5.65;;;;;;;16.18;50.72;99381.23;1691223;84;25786;-74
2022/04/24 08:55:32;;;;;;;6.40;5.70;;;;;;;16.54;52.30;99381.11;1676884;84;25665;-72
2022/04/24 08:57:59;;;;;;;6.15;5.55;;;;;;;16.96;51.96;99372.45;1671274;84;25672;-73
2022/04/24 09:00:28;;;;;;;7.58;4.67;;;;;;;17.24;51.48;99376.03;1664507;84;27331;-75
2022/04/24 09:02:55;;;;;;;5.50;5.00;;;;;;;17.82;52.06;99375.92;1671655;84;25908;-73
2022/04/24 09:05:22;;;;;;;5.53;4.62;;;;;;;18.47;50.36;99374.39;1692053;84;25706;-70
2022/04/24 09:07:52;;;;;;;6.12;4.83;;;;;;;18.97;49.70;99375.16;1691982;84;25637;-70
2022/04/24 09:10:16;;;;;;;3.95;3.55;;;;;;;19.36;48.67;99365.44;1692192;84;25710;-72
2022/04/24 09:12:43;;;;;;;4.20;3.80;;;;;;;19.75;47.44;99363.27;1692056;84;27386;-70
2022/04/24 09:15:09;;;;;;;4.90;4.08;;;;;;;20.11;47.14;99363.23;1680930;84;25608;-71
2022/04/24 09:17:36;;;;;;;3.92;3.45;;;;;;;20.29;45.82;99361.80;1661763;84;25478;-70
2022/04/24 09:20:19;;;;;;;4.22;3.30;;;;;;;20.01;44.55;99365.42;1690692;84;25506;-72
2022/04/24 09:22:47;;;;;;;3.90;3.58;;;;;;;19.64;44.42;99365.23;1690629;84;25823;-72
2022/04/24 09:25:14;;;;;;;4.00;3.70;;;;;;;19.26;44.53;99373.84;1690769;84;27392;-72
2022/04/24 09:27:40;;;;;;;4.72;4.05;;;;;;;19.18;44.63;99368.92;1690722;84;25658;-73
2022/04/24 09:30:13;;;;;;;4.65;3.60;;;;;;;18.94;44.12;99372.41;1690536;84;25652;-72
2022/04/24 09:32:51;;;;;;;5.97;3.90;;;;;;;18.63;44.04;99380.89;1688978;84;25760;-71
2022/04/24 09:35:32;;;;;;;2.83;2.50;;;;;;;18.33;44.46;99385.84;1691204;84;25683;-72
2022/04/24 09:38:18;;;;;;;3.42;2.80;;;;;;;18.08;44.26;99373.59;1697136;83;27522;-73
2022/04/24 09:40:47;;;;;;;3.37;2.77;;;;;;;18.02;45.59;99372.97;1697313;84;25457;-73
2022/04/24 09:43:17;;;;;;;3.10;2.90;;;;;;;18.56;46.08;99365.81;1671965;85;25680;-73
2022/04/24 09:45:56;;;;;;;3.10;2.90;;;;;;;19.12;45.52;99364.21;1702459;84;25746;-72
2022/04/24 09:48:25;;;;;;;3.47;3.12;;;;;;;19.74;45.98;99355.64;1688534;84;25626;-71
2022/04/24 09:50:53;;;;;;;2.92;2.72;;;;;;;20.42;44.72;99362.92;1697803;84;27979;-70
2022/04/24 09:53:22;;;;;;;2.77;2.58;;;;;;;20.86;43.47;99357.45;1682439;84;25690;-71
2022/04/24 09:55:50;;;;;;;8.00;6.50;;;;;;;20.69;42.04;99363.84;1675897;84;25759;-73
2022/04/24 09:58:18;;;;;;;4.58;2.87;;;;;;;20.31;41.17;99370.41;1701837;84;25681;-70
2022/04/24 10:00:45;;;;;;;3.10;2.90;;;;;;;19.91;41.18;99375.23;1702445;84;25490;-71
2022/04/24 10:03:16;;;;;;;3.35;2.62;;;;;;;19.58;41.35;99379.34;1703082;84;27298;-71
2022/04/24 10:05:47;;;;;;;3.17;2.58;;;;;;;19.31;41.56;99379.53;1694305;84;25800;-72
2022/04/24 10:08:16;;;;;;;2.77;2.55;;;;;;;19.10;41.72;99384.37;1690754;84;25457;-71
2022/04/24 10:10:43;;;;;;;3.27;2.95;;;;;;;18.83;42.09;99387.43;1701609;84;25655;-73
2022/04/24 10:13:12;;;;;;;3.35;2.72;;;;;;;18.61;42.12;99394.76;1681325;84;25789;-71
2022/04/24 10:16:06;;;;;;;3.40;3.10;;;;;;;18.36;42.30;99391.33;1684254;84;27379;-72
2022/04/24 10:18:41;;;;;;;3.00;2.70;;;;;;;18.15;42.70;99386.54;1686793;84;25636;-73
2022/04/24 10:21:42;;;;;;;3.27;2.98;;;;;;;17.99;42.99;99396.39;1699880;84;26225;-72
2022/04/24 10:24:12;;;;;;;3.72;3.42;;;;;;;17.81;42.86;99388.61;1689282;84;25647;-72
2022/04/24 10:26:39;;;;;;;3.92;2.95;;;;;;;17.59;43.13;99388.46;1693736;84;25685;-73
2022/04/24 10:29:09;;;;;;;3.08;2.67;;;;;;;17.44;43.54;99391.65;1701892;84;27161;-73
2022/04/24 10:31:47;;;;;;;3.08;2.70;;;;;;;17.36;43.79;99388.64;1684045;84;25697;-73
2022/04/24 10:34:17;;;;;;;3.00;2.70;;;;;;;17.34;44.03;99395.84;1689825;84;25417;-72
2022/04/24 10:37:01;;;;;;;3.80;3.00;;;;;;;17.32;43.97;99389.20;1692019;84;25789;-73
2022/04/24 10:39:33;;;;;;;3.08;2.65;;;;;;;17.26;44.10;99398.30;1697903;84;25698;-71
2022/04/24 10:42:07;;;;;;;2.98;2.67;;;;;;;17.24;43.93;99395.16;1693548;83;28036;-72
2022/04/24 10:44:34;;;;;;;3.95;2.80;;;;;;;17.17;44.16;99388.27;1688352;84;25836;-72
2022/04/24 10:47:12;;;;;;;7.17;5.08;;;;;;;17.18;44.28;99383.80;1703275;84;25577;-72
2022/04/24 10:49:38;;;;;;;2.92;2.58;;;;;;;17.22;44.31;99377.00;1684585;84;26237;-72
2022/04/24 10:52:06;;;;;;;4.28;3.22;;;;;;;17.28;44.46;99372.77;1690761;84;25771;-74
2022/04/24 10:54:39;;;;;;;3.52;2.90;;;;;;;17.36;44.30;99373.02;1674171;85;27996;-76
2022/04/24 10:57:21;;;;;;;4.33;2.85;;;;;;;17.46;44.21;99371.55;1696034;84;25639;-73
2022/04/24 10:59:52;;;;;;;4.28;2.72;;;;;;;17.46;44.13;99378.38;1686580;84;25772;-74
2022/04/24 11:02:23;;;;;;;5.17;3.62;;;;;;;17.39;44.07;99378.33;1690202;84;25663;-72
2022/04/24 11:05:06;;;;;;;3.95;3.55;;;;;;;17.33;43.66;99383.92;1695539;84;25505;-72
2022/04/24 11:07:33;;;;;;;3.17;2.92;;;;;;;17.22;43.77;99376.22;1684175;84;27424;-70
2022/04/24 11:10:08;;;;;;;4.05;2.62;;;;;;;17.18;44.01;99373.45;1702325;84;25391;-72
2022/04/24 11:12:35;;;;;;;3.50;2.98;;;;;;;17.20;44.04;99368.40;1700914;84;25595;-74
2022/04/24 11:15:11;;;;;;;4.12;2.98;;;;;;;17.20;43.95;99367.03;1680540;83;25791;-73
2022/04/24 11:17:39;;;;;;;32.42;6.15;;;;;;;17.26;43.80;99375.08;1664890;84;25832;-75
2022/04/24 11:20:13;;;;;;;3.35;3.05;;;;;;;17.44;44.30;99381.30;1692347;84;27317;-73
2022/04/24 11:22:55;;;;;;;4.22;3.58;;;;;;;17.62;43.83;99375.41;1679090;85;25660;-73
2022/04/24 11:25:24;;;;;;;3.08;2.67;;;;;;;17.87;43.92;99378.92;1696132;84;26375;-75
2022/04/24 11:27:56;;;;;;;2.92;2.72;;;;;;;18.11;43.18;99375.55;1687004;84;25875;-72
2022/04/24 11:30:26;;;;;;;2.92;2.72;;;;;;;18.32;43.42;99376.05;1703550;84;25635;-75
2022/04/24 11:33:00;;;;;;;3.55;3.15;;;;;;;18.56;42.99;99376.77;1675451;84;27992;-72
2022/04/24 11:35:29;;;;;;;11.73;7.05;;;;;;;18.69;42.49;99379.16;1696894;83;25779;-74